createdAt,value
2018-03-31T00:00:06.903Z,0
2018-03-31T00:01:06.669Z,0
2018-03-31T00:02:06.940Z,0
2018-03-31T00:03:07.209Z,0
2018-03-31T00:04:07.001Z,0
2018-03-31T00:05:06.729Z,0
2018-03-31T00:06:07.540Z,0
2018-03-31T00:07:06.771Z,0
2018-03-31T00:08:07.042Z,0
2018-03-31T00:09:07.553Z,0
2018-03-31T00:10:07.070Z,0
2018-03-31T00:11:07.094Z,0
2018-03-31T00:12:07.362Z,0
2018-03-31T00:13:07.633Z,0
2018-03-31T00:14:07.130Z,0
2018-03-31T00:15:07.515Z,0
2018-03-31T00:16:07.435Z,0
2018-03-31T00:17:07.431Z,0
2018-03-31T00:18:07.216Z,0
2018-03-31T00:19:06.979Z,0
2018-03-31T00:20:07.293Z,0
2018-03-31T00:21:07.495Z,0
2018-03-31T00:22:07.264Z,0
2018-03-31T00:23:07.546Z,0
2018-03-31T00:24:07.556Z,0
2018-03-31T00:25:07.366Z,0
2018-03-31T00:26:07.594Z,0
2018-03-31T00:27:07.599Z,0
2018-03-31T00:28:07.659Z,0
2018-03-31T00:29:07.639Z,0
2018-03-31T00:30:07.905Z,0
2018-03-31T00:31:07.408Z,0
2018-03-31T00:32:07.427Z,0
2018-03-31T00:33:07.697Z,0
2018-03-31T00:34:07.722Z,0
2018-03-31T00:35:07.222Z,0
2018-03-31T00:36:07.495Z,0
2018-03-31T00:37:07.256Z,0
2018-03-31T00:38:07.779Z,0
2018-03-31T00:39:07.794Z,0
2018-03-31T00:40:07.811Z,0
2018-03-31T00:41:08.142Z,0
2018-03-31T00:42:07.594Z,0
2018-03-31T00:43:07.611Z,0
2018-03-31T00:44:08.157Z,0
2018-03-31T00:45:07.899Z,0
2018-03-31T00:46:08.291Z,0
2018-03-31T00:47:07.937Z,0
2018-03-31T00:48:07.937Z,0
2018-03-31T00:49:07.469Z,0
2018-03-31T00:50:07.987Z,0
2018-03-31T00:51:07.487Z,0
2018-03-31T00:52:08.012Z,0
2018-03-31T00:53:07.774Z,0
2018-03-31T00:54:08.041Z,0
2018-03-31T00:55:08.310Z,0
2018-03-31T00:56:07.876Z,0
2018-03-31T00:57:08.096Z,0
2018-03-31T00:58:07.853Z,0
2018-03-31T00:59:08.381Z,0
2018-03-31T01:00:08.409Z,0
2018-03-31T01:01:07.981Z,0
2018-03-31T01:02:07.660Z,0
2018-03-31T01:03:07.960Z,0
2018-03-31T01:04:07.704Z,0
2018-03-31T01:05:08.218Z,0
2018-03-31T01:06:08.244Z,0
2018-03-31T01:07:08.495Z,0
2018-03-31T01:08:08.010Z,0
2018-03-31T01:09:08.281Z,0
2018-03-31T01:10:08.043Z,0
2018-03-31T01:11:08.364Z,0
2018-03-31T01:12:08.086Z,0
2018-03-31T01:13:08.384Z,0
2018-03-31T01:14:08.127Z,0
2018-03-31T01:15:08.130Z,0
2018-03-31T01:16:09.253Z,0
2018-03-31T01:17:08.180Z,0
2018-03-31T01:18:08.694Z,0
2018-03-31T01:19:08.452Z,0
2018-03-31T01:20:08.716Z,0
2018-03-31T01:21:08.491Z,0
2018-03-31T01:22:08.502Z,0
2018-03-31T01:23:07.755Z,0
2018-03-31T01:24:08.274Z,0
2018-03-31T01:25:08.571Z,0
2018-03-31T01:26:08.561Z,0
2018-03-31T01:27:08.832Z,0
2018-03-31T01:28:08.598Z,0
2018-03-31T01:29:08.623Z,0
2018-03-31T01:30:08.375Z,0
2018-03-31T01:31:08.667Z,0
2018-03-31T01:32:08.423Z,0
2018-03-31T01:33:08.647Z,0
2018-03-31T01:34:08.908Z,0
2018-03-31T01:35:08.445Z,0
2018-03-31T01:36:08.731Z,0
2018-03-31T01:37:08.497Z,0
2018-03-31T01:38:08.509Z,0
2018-03-31T01:39:08.531Z,0
2018-03-31T01:40:08.794Z,0
2018-03-31T01:41:09.064Z,0
2018-03-31T01:42:08.575Z,0
2018-03-31T01:43:09.098Z,0
2018-03-31T01:44:08.913Z,0
2018-03-31T01:45:08.889Z,0
2018-03-31T01:46:09.144Z,0
2018-03-31T01:47:08.715Z,0
2018-03-31T01:48:08.925Z,0
2018-03-31T01:49:08.948Z,0
2018-03-31T01:50:09.226Z,0
2018-03-31T01:51:08.972Z,0
2018-03-31T01:52:08.994Z,0
2018-03-31T01:53:08.505Z,0
2018-03-31T01:54:09.334Z,0
2018-03-31T01:55:09.338Z,0
2018-03-31T01:56:09.329Z,0
2018-03-31T01:57:09.080Z,0
2018-03-31T01:58:08.320Z,0
2018-03-31T01:59:09.094Z,0
2018-03-31T02:00:09.112Z,0
2018-03-31T02:02:49.092Z,0
2018-03-31T02:03:32.080Z,0
2018-03-31T02:04:31.858Z,0
2018-03-31T02:05:32.369Z,0
2018-03-31T02:06:32.226Z,0
2018-03-31T02:07:32.399Z,0
2018-03-31T02:08:32.408Z,0
2018-03-31T02:09:31.945Z,0
2018-03-31T02:10:32.213Z,0
2018-03-31T02:11:32.223Z,0
2018-03-31T02:12:32.508Z,0
2018-03-31T02:13:32.002Z,0
2018-03-31T02:14:32.275Z,0
2018-03-31T02:15:32.286Z,0
2018-03-31T02:16:32.311Z,0
2018-03-31T02:17:32.571Z,0
2018-03-31T02:18:32.393Z,0
2018-03-31T02:19:31.863Z,0
2018-03-31T02:20:32.368Z,0
2018-03-31T02:21:32.389Z,0
2018-03-31T02:22:32.657Z,0
2018-03-31T02:23:32.433Z,0
2018-03-31T02:24:32.440Z,0
2018-03-31T02:25:31.940Z,0
2018-03-31T02:26:32.718Z,0
2018-03-31T02:27:32.732Z,0
2018-03-31T02:28:32.496Z,0
2018-03-31T02:29:32.278Z,0
2018-03-31T02:30:32.564Z,0
2018-03-31T02:31:32.577Z,0
2018-03-31T02:32:32.340Z,0
2018-03-31T02:33:32.400Z,0
2018-03-31T02:34:32.370Z,0
2018-03-31T02:35:32.896Z,0
2018-03-31T02:36:32.664Z,0
2018-03-31T02:37:32.663Z,0
2018-03-31T02:38:32.950Z,0
2018-03-31T02:39:32.445Z,0
2018-03-31T02:40:32.212Z,0
2018-03-31T02:41:32.997Z,0
2018-03-31T02:42:32.497Z,0
2018-03-31T02:43:33.134Z,0
2018-03-31T02:44:32.781Z,0
2018-03-31T02:45:33.067Z,0
2018-03-31T02:46:32.820Z,0
2018-03-31T02:47:32.834Z,0
2018-03-31T02:48:32.652Z,0
2018-03-31T02:49:33.122Z,0
2018-03-31T02:50:32.359Z,0
2018-03-31T02:51:32.647Z,0
2018-03-31T02:52:32.650Z,0
2018-03-31T02:53:32.927Z,0
2018-03-31T02:54:32.429Z,0
2018-03-31T02:55:33.233Z,0
2018-03-31T02:56:33.230Z,0
2018-03-31T02:57:33.237Z,0
2018-03-31T02:58:33.262Z,0
2018-03-31T02:59:32.773Z,0
2018-03-31T03:00:32.773Z,0
2018-03-31T03:01:32.793Z,0
2018-03-31T03:02:33.049Z,0
2018-03-31T03:03:33.229Z,0
2018-03-31T03:04:33.091Z,0
2018-03-31T03:05:32.840Z,0
2018-03-31T03:06:32.864Z,0
2018-03-31T03:07:33.393Z,0
2018-03-31T03:08:32.902Z,0
2018-03-31T03:09:32.651Z,0
2018-03-31T03:10:33.452Z,0
2018-03-31T03:11:33.182Z,0
2018-03-31T03:12:33.227Z,0
2018-03-31T03:13:33.222Z,0
2018-03-31T03:14:33.246Z,0
2018-03-31T03:15:33.266Z,0
2018-03-31T03:16:32.766Z,0
2018-03-31T03:17:33.291Z,0
2018-03-31T03:18:33.357Z,0
2018-03-31T03:19:33.341Z,0
2018-03-31T03:20:33.602Z,0
2018-03-31T03:21:32.850Z,0
2018-03-31T03:22:33.662Z,0
2018-03-31T03:23:33.246Z,0
2018-03-31T03:24:33.206Z,0
2018-03-31T03:25:33.416Z,0
2018-03-31T03:26:33.674Z,0
2018-03-31T03:27:33.690Z,0
2018-03-31T03:28:33.439Z,0
2018-03-31T03:29:33.483Z,0
2018-03-31T03:30:33.753Z,0
2018-03-31T03:31:33.527Z,0
2018-03-31T03:32:33.263Z,0
2018-03-31T03:33:33.328Z,0
2018-03-31T03:34:33.283Z,0
2018-03-31T03:35:33.833Z,0
2018-03-31T03:36:33.594Z,0
2018-03-31T03:37:33.611Z,0
2018-03-31T03:38:33.637Z,0
2018-03-31T03:39:33.675Z,0
2018-03-31T03:40:33.663Z,0
2018-03-31T03:41:33.677Z,0
2018-03-31T03:42:33.954Z,0
2018-03-31T03:43:33.503Z,0
2018-03-31T03:44:33.984Z,0
2018-03-31T03:45:33.483Z,0
2018-03-31T03:46:33.772Z,0
2018-03-31T03:47:33.273Z,0
2018-03-31T03:48:34.049Z,0
2018-03-31T03:49:34.059Z,0
2018-03-31T03:50:33.562Z,0
2018-03-31T03:51:33.888Z,0
2018-03-31T03:52:33.858Z,0
2018-03-31T03:53:33.921Z,0
2018-03-31T03:54:33.640Z,0
2018-03-31T03:55:34.152Z,0
2018-03-31T03:56:34.167Z,0
2018-03-31T03:57:33.929Z,0
2018-03-31T03:58:34.267Z,0
2018-03-31T03:59:34.226Z,0
2018-03-31T04:00:34.233Z,0
2018-03-31T04:01:33.736Z,0
2018-03-31T04:02:33.757Z,0
2018-03-31T04:03:34.033Z,0
2018-03-31T04:04:33.800Z,0
2018-03-31T04:05:34.063Z,0
2018-03-31T04:06:34.080Z,0
2018-03-31T04:07:34.094Z,0
2018-03-31T04:08:34.359Z,0
2018-03-31T04:09:33.611Z,0
2018-03-31T04:10:34.388Z,0
2018-03-31T04:11:34.186Z,0
2018-03-31T04:12:34.468Z,0
2018-03-31T04:13:34.496Z,0
2018-03-31T04:14:33.945Z,0
2018-03-31T04:15:33.958Z,0
2018-03-31T04:16:34.497Z,0
2018-03-31T04:17:34.246Z,0
2018-03-31T04:18:34.007Z,0
2018-03-31T04:19:34.020Z,0
2018-03-31T04:20:34.289Z,0
2018-03-31T04:21:34.306Z,0
2018-03-31T04:22:34.581Z,0
2018-03-31T04:23:34.590Z,0
2018-03-31T04:24:34.121Z,0
2018-03-31T04:25:34.372Z,0
2018-03-31T04:26:34.384Z,0
2018-03-31T04:27:34.656Z,0
2018-03-31T04:28:34.464Z,0
2018-03-31T04:29:33.921Z,0
2018-03-31T04:30:34.435Z,0
2018-03-31T04:31:34.440Z,0
2018-03-31T04:32:34.452Z,0
2018-03-31T04:33:34.480Z,0
2018-03-31T04:34:34.750Z,0
2018-03-31T04:35:34.775Z,0
2018-03-31T04:36:34.542Z,0
2018-03-31T04:37:34.555Z,0
2018-03-31T04:38:34.578Z,0
2018-03-31T04:39:34.591Z,0
2018-03-31T04:40:34.606Z,0
2018-03-31T04:41:34.877Z,0
2018-03-31T04:42:34.690Z,0
2018-03-31T04:43:34.639Z,0
2018-03-31T04:44:34.648Z,0
2018-03-31T04:45:34.926Z,0
2018-03-31T04:46:34.934Z,0
2018-03-31T04:47:34.744Z,0
2018-03-31T04:48:34.562Z,0
2018-03-31T04:49:34.226Z,0
2018-03-31T04:50:34.775Z,0
2018-03-31T04:51:34.771Z,0
2018-03-31T04:52:35.039Z,0
2018-03-31T04:53:35.051Z,0
2018-03-31T04:54:34.353Z,0
2018-03-31T04:55:35.088Z,0
2018-03-31T04:56:34.841Z,0
2018-03-31T04:57:34.862Z,0
2018-03-31T04:58:34.893Z,0
2018-03-31T04:59:35.146Z,0
2018-03-31T05:00:35.163Z,0
2018-03-31T05:01:34.924Z,0
2018-03-31T05:02:35.216Z,0
2018-03-31T05:03:34.459Z,0
2018-03-31T05:04:35.224Z,0
2018-03-31T05:05:34.987Z,0
2018-03-31T05:06:34.751Z,0
2018-03-31T05:07:35.279Z,0
2018-03-31T05:08:34.521Z,5
2018-03-31T05:09:35.096Z,5
2018-03-31T05:10:35.071Z,5
2018-03-31T05:11:35.333Z,5
2018-03-31T05:12:35.106Z,10
2018-03-31T05:13:35.352Z,5
2018-03-31T05:14:34.613Z,5
2018-03-31T05:15:35.391Z,5
2018-03-31T05:16:35.173Z,5
2018-03-31T05:17:34.909Z,5
2018-03-31T05:18:35.433Z,5
2018-03-31T05:19:35.198Z,5
2018-03-31T05:20:35.473Z,5
2018-03-31T05:21:35.289Z,5
2018-03-31T05:22:35.235Z,5
2018-03-31T05:23:34.995Z,10
2018-03-31T05:24:35.312Z,10
2018-03-31T05:25:35.268Z,10
2018-03-31T05:26:35.416Z,10
2018-03-31T05:27:35.554Z,10
2018-03-31T05:28:35.069Z,5
2018-03-31T05:29:35.073Z,5
2018-03-31T05:30:35.607Z,5
2018-03-31T05:31:34.869Z,10
2018-03-31T05:32:35.401Z,10
2018-03-31T05:33:35.152Z,10
2018-03-31T05:34:35.427Z,10
2018-03-31T05:35:35.438Z,10
2018-03-31T05:36:35.193Z,10
2018-03-31T05:37:35.459Z,10
2018-03-31T05:38:35.218Z,10
2018-03-31T05:39:35.292Z,10
2018-03-31T05:40:35.256Z,10
2018-03-31T05:41:35.263Z,10
2018-03-31T05:42:35.284Z,5
2018-03-31T05:43:35.571Z,5
2018-03-31T05:44:35.613Z,5
2018-03-31T05:45:35.837Z,5
2018-03-31T05:46:35.333Z,5
2018-03-31T05:47:35.102Z,5
2018-03-31T05:48:35.626Z,10
2018-03-31T05:49:35.165Z,10
2018-03-31T05:50:35.912Z,15
2018-03-31T05:51:35.923Z,20
2018-03-31T05:52:35.438Z,25
2018-03-31T05:53:35.455Z,30
2018-03-31T05:54:35.462Z,35
2018-03-31T05:55:35.483Z,35
2018-03-31T05:56:35.238Z,40
2018-03-31T05:57:35.765Z,40
2018-03-31T05:58:35.518Z,40
2018-03-31T05:59:35.590Z,40
2018-03-31T06:00:36.058Z,40
2018-03-31T06:01:36.084Z,40
2018-03-31T06:02:35.839Z,35
2018-03-31T06:03:35.760Z,35
2018-03-31T06:04:35.611Z,35
2018-03-31T06:05:35.900Z,35
2018-03-31T06:06:35.907Z,35
2018-03-31T06:07:35.414Z,35
2018-03-31T06:08:35.667Z,40
2018-03-31T06:09:36.191Z,45
2018-03-31T06:10:35.958Z,45
2018-03-31T06:11:36.229Z,45
2018-03-31T06:12:35.995Z,45
2018-03-31T06:13:35.751Z,45
2018-03-31T06:14:36.073Z,45
2018-03-31T06:15:36.290Z,45
2018-03-31T06:16:36.321Z,45
2018-03-31T06:17:36.066Z,45
2018-03-31T06:18:36.082Z,50
2018-03-31T06:19:36.088Z,50
2018-03-31T06:20:36.380Z,45
2018-03-31T06:21:35.882Z,45
2018-03-31T06:22:35.626Z,40
2018-03-31T06:23:35.900Z,40
2018-03-31T06:24:36.530Z,40
2018-03-31T06:25:36.444Z,40
2018-03-31T06:26:35.944Z,40
2018-03-31T06:27:36.206Z,40
2018-03-31T06:28:36.227Z,45
2018-03-31T06:29:36.297Z,45
2018-03-31T06:30:36.717Z,45
2018-03-31T06:31:36.582Z,50
2018-03-31T06:32:36.271Z,50
2018-03-31T06:33:36.294Z,50
2018-03-31T06:34:36.314Z,55
2018-03-31T06:35:36.574Z,60
2018-03-31T06:36:36.590Z,60
2018-03-31T06:37:36.486Z,65
2018-03-31T06:38:36.120Z,70
2018-03-31T06:39:36.384Z,70
2018-03-31T06:40:36.396Z,75
2018-03-31T06:41:35.923Z,75
2018-03-31T06:42:36.429Z,80
2018-03-31T06:43:36.447Z,80
2018-03-31T06:44:36.251Z,80
2018-03-31T06:45:36.733Z,80
2018-03-31T06:46:36.762Z,80
2018-03-31T06:47:36.513Z,75
2018-03-31T06:48:36.795Z,75
2018-03-31T06:49:36.559Z,70
2018-03-31T06:50:36.301Z,65
2018-03-31T06:51:36.570Z,65
2018-03-31T06:52:36.605Z,60
2018-03-31T06:53:36.091Z,60
2018-03-31T06:54:36.616Z,60
2018-03-31T06:55:36.888Z,60
2018-03-31T06:56:36.669Z,65
2018-03-31T06:57:36.926Z,65
2018-03-31T06:58:36.928Z,70
2018-03-31T06:59:36.444Z,70
2018-03-31T07:00:36.964Z,70
2018-03-31T07:01:36.740Z,65
2018-03-31T07:02:36.548Z,60
2018-03-31T07:03:37.021Z,60
2018-03-31T07:04:37.084Z,60
2018-03-31T07:05:36.533Z,65
2018-03-31T07:06:37.046Z,75
2018-03-31T07:07:36.809Z,80
2018-03-31T07:08:36.864Z,80
2018-03-31T07:09:37.092Z,85
2018-03-31T07:10:36.602Z,90
2018-03-31T07:11:36.616Z,100
2018-03-31T07:12:36.885Z,110
2018-03-31T07:13:36.645Z,120
2018-03-31T07:14:36.910Z,130
2018-03-31T07:15:37.089Z,135
2018-03-31T07:16:37.202Z,135
2018-03-31T07:17:37.017Z,130
2018-03-31T07:18:37.232Z,120
2018-03-31T07:19:36.994Z,110
2018-03-31T07:20:37.259Z,105
2018-03-31T07:21:37.272Z,95
2018-03-31T07:22:37.035Z,80
2018-03-31T07:23:37.323Z,75
2018-03-31T07:24:36.824Z,70
2018-03-31T07:25:36.624Z,65
2018-03-31T07:26:37.366Z,70
2018-03-31T07:27:36.608Z,75
2018-03-31T07:28:37.133Z,80
2018-03-31T07:29:37.396Z,90
2018-03-31T07:30:37.157Z,105
2018-03-31T07:31:36.922Z,115
2018-03-31T07:32:37.293Z,125
2018-03-31T07:33:37.457Z,130
2018-03-31T07:34:37.216Z,125
2018-03-31T07:35:37.255Z,120
2018-03-31T07:36:37.005Z,115
2018-03-31T07:37:37.270Z,115
2018-03-31T07:38:37.539Z,120
2018-03-31T07:39:37.303Z,125
2018-03-31T07:40:37.418Z,135
2018-03-31T07:41:37.579Z,145
2018-03-31T07:42:37.594Z,150
2018-03-31T07:43:37.113Z,160
2018-03-31T07:44:37.110Z,170
2018-03-31T07:45:37.133Z,180
2018-03-31T07:46:37.644Z,185
2018-03-31T07:47:37.467Z,185
2018-03-31T07:48:37.420Z,180
2018-03-31T07:49:37.707Z,175
2018-03-31T07:50:37.712Z,175
2018-03-31T07:51:37.466Z,170
2018-03-31T07:52:37.753Z,175
2018-03-31T07:53:37.239Z,175
2018-03-31T07:54:37.259Z,175
2018-03-31T07:55:37.530Z,185
2018-03-31T07:56:37.301Z,195
2018-03-31T07:57:37.597Z,210
2018-03-31T07:58:37.853Z,235
2018-03-31T07:59:37.886Z,265
2018-03-31T08:00:37.630Z,275
2018-03-31T08:01:37.641Z,270
2018-03-31T08:02:37.720Z,280
2018-03-31T08:03:37.922Z,305
2018-03-31T08:04:37.934Z,290
2018-03-31T08:05:37.953Z,290
2018-03-31T08:06:37.963Z,290
2018-03-31T08:07:37.994Z,290
2018-03-31T08:08:38.001Z,295
2018-03-31T08:09:37.255Z,290
2018-03-31T08:10:38.033Z,265
2018-03-31T08:11:37.797Z,245
2018-03-31T08:12:37.804Z,245
2018-03-31T08:13:37.825Z,255
2018-03-31T08:14:38.095Z,255
2018-03-31T08:15:37.894Z,265
2018-03-31T08:16:37.872Z,270
2018-03-31T08:17:38.200Z,275
2018-03-31T08:18:37.393Z,285
2018-03-31T08:19:38.181Z,285
2018-03-31T08:20:37.943Z,300
2018-03-31T08:21:38.228Z,300
2018-03-31T08:22:37.711Z,285
2018-03-31T08:23:37.995Z,280
2018-03-31T08:24:38.142Z,265
2018-03-31T08:25:38.024Z,260
2018-03-31T08:26:37.525Z,280
2018-03-31T08:27:37.802Z,295
2018-03-31T08:28:38.113Z,325
2018-03-31T08:29:37.830Z,340
2018-03-31T08:30:37.942Z,355
2018-03-31T08:31:38.129Z,350
2018-03-31T08:32:37.929Z,285
2018-03-31T08:33:37.655Z,235
2018-03-31T08:34:38.424Z,225
2018-03-31T08:35:38.179Z,220
2018-03-31T08:36:37.945Z,215
2018-03-31T08:37:37.997Z,220
2018-03-31T08:38:38.002Z,220
2018-03-31T08:39:38.482Z,205
2018-03-31T08:40:38.266Z,205
2018-03-31T08:41:38.049Z,205
2018-03-31T08:42:38.279Z,185
2018-03-31T08:43:38.310Z,160
2018-03-31T08:44:38.329Z,155
2018-03-31T08:45:37.840Z,165
2018-03-31T08:46:37.861Z,190
2018-03-31T08:47:38.443Z,215
2018-03-31T08:48:38.408Z,210
2018-03-31T08:49:38.164Z,200
2018-03-31T08:50:38.442Z,190
2018-03-31T08:51:38.928Z,180
2018-03-31T08:52:38.724Z,185
2018-03-31T08:53:38.739Z,190
2018-03-31T08:54:38.312Z,180
2018-03-31T08:55:38.525Z,170
2018-03-31T08:56:38.848Z,160
2018-03-31T08:57:38.813Z,160
2018-03-31T08:58:38.319Z,160
2018-03-31T08:59:38.594Z,160
2018-03-31T09:00:38.355Z,150
2018-03-31T09:01:38.622Z,140
2018-03-31T09:02:38.431Z,145
2018-03-31T09:03:38.656Z,155
2018-03-31T09:04:38.667Z,150
2018-03-31T09:05:38.901Z,155
2018-03-31T09:06:38.675Z,155
2018-03-31T09:07:38.191Z,155
2018-03-31T09:08:38.702Z,155
2018-03-31T09:09:38.472Z,150
2018-03-31T09:10:38.988Z,140
2018-03-31T09:11:39.001Z,130
2018-03-31T09:12:38.511Z,125
2018-03-31T09:13:39.036Z,130
2018-03-31T09:14:38.802Z,145
2018-03-31T09:15:38.321Z,145
2018-03-31T09:16:38.838Z,145
2018-03-31T09:17:39.103Z,145
2018-03-31T09:18:38.654Z,145
2018-03-31T09:19:38.950Z,155
2018-03-31T09:20:39.183Z,180
2018-03-31T09:21:38.946Z,215
2018-03-31T09:22:38.953Z,225
2018-03-31T09:23:38.716Z,195
2018-03-31T09:24:38.985Z,190
2018-03-31T09:25:38.752Z,190
2018-03-31T09:26:39.266Z,200
2018-03-31T09:27:39.035Z,225
2018-03-31T09:28:38.802Z,250
2018-03-31T09:29:38.866Z,295
2018-03-31T09:30:38.852Z,325
2018-03-31T09:31:39.104Z,335
2018-03-31T09:32:38.863Z,325
2018-03-31T09:33:39.148Z,305
2018-03-31T09:34:39.178Z,305
2018-03-31T09:35:39.444Z,320
2018-03-31T09:36:39.230Z,315
2018-03-31T09:37:39.476Z,290
2018-03-31T09:38:39.496Z,265
2018-03-31T09:39:39.306Z,245
2018-03-31T09:40:39.536Z,245
2018-03-31T09:41:39.297Z,250
2018-03-31T09:42:39.315Z,255
2018-03-31T09:43:39.329Z,255
2018-03-31T09:44:39.407Z,265
2018-03-31T09:45:39.368Z,270
2018-03-31T09:46:39.789Z,250
2018-03-31T09:47:39.383Z,215
2018-03-31T09:48:39.404Z,205
2018-03-31T09:49:39.424Z,230
2018-03-31T09:50:39.440Z,225
2018-03-31T09:51:39.203Z,210
2018-03-31T09:52:38.961Z,190
2018-03-31T09:53:39.751Z,175
2018-03-31T09:54:39.251Z,165
2018-03-31T09:55:39.295Z,170
2018-03-31T09:56:39.558Z,180
2018-03-31T09:57:39.848Z,195
2018-03-31T09:58:39.592Z,205
2018-03-31T09:59:39.655Z,210
2018-03-31T10:00:39.631Z,220
2018-03-31T10:01:39.122Z,230
2018-03-31T10:02:39.879Z,225
2018-03-31T10:03:39.385Z,225
2018-03-31T10:04:39.160Z,215
2018-03-31T10:05:39.930Z,205
2018-03-31T10:06:39.738Z,185
2018-03-31T10:07:39.759Z,170
2018-03-31T10:08:39.772Z,170
2018-03-31T10:09:40.054Z,170
2018-03-31T10:10:40.053Z,165
2018-03-31T10:11:39.575Z,165
2018-03-31T10:12:39.879Z,190
2018-03-31T10:13:40.117Z,220
2018-03-31T10:14:39.922Z,230
2018-03-31T10:15:40.171Z,240
2018-03-31T10:16:39.900Z,245
2018-03-31T10:17:39.868Z,240
2018-03-31T10:18:39.974Z,225
2018-03-31T10:19:39.955Z,215
2018-03-31T10:20:40.242Z,195
2018-03-31T10:21:39.991Z,170
2018-03-31T10:22:39.849Z,160
2018-03-31T10:23:40.284Z,155
2018-03-31T10:24:40.059Z,155
2018-03-31T10:25:40.069Z,155
2018-03-31T10:26:40.349Z,160
2018-03-31T10:27:40.111Z,170
2018-03-31T10:28:39.873Z,190
2018-03-31T10:29:40.183Z,210
2018-03-31T10:30:40.165Z,225
2018-03-31T10:31:40.433Z,220
2018-03-31T10:32:40.201Z,200
2018-03-31T10:33:40.218Z,180
2018-03-31T10:34:40.241Z,160
2018-03-31T10:35:40.250Z,150
2018-03-31T10:36:40.101Z,135
2018-03-31T10:37:40.286Z,125
2018-03-31T10:38:40.052Z,115
2018-03-31T10:39:40.572Z,110
2018-03-31T10:40:40.082Z,115
2018-03-31T10:41:40.411Z,120
2018-03-31T10:42:40.189Z,135
2018-03-31T10:43:40.212Z,155
2018-03-31T10:44:40.443Z,170
2018-03-31T10:45:40.436Z,190
2018-03-31T10:46:40.473Z,220
2018-03-31T10:47:40.548Z,240
2018-03-31T10:48:40.471Z,260
2018-03-31T10:49:40.743Z,265
2018-03-31T10:50:40.506Z,275
2018-03-31T10:51:40.290Z,290
2018-03-31T10:52:40.565Z,305
2018-03-31T10:53:40.848Z,310
2018-03-31T10:54:40.845Z,325
2018-03-31T10:55:40.872Z,325
2018-03-31T10:56:40.882Z,315
2018-03-31T10:57:40.912Z,295
2018-03-31T10:58:40.915Z,280
2018-03-31T10:59:40.425Z,265
2018-03-31T11:00:40.956Z,265
2018-03-31T11:01:41.015Z,265
2018-03-31T11:02:40.999Z,270
2018-03-31T11:03:40.752Z,265
2018-03-31T11:04:41.042Z,260
2018-03-31T11:05:41.283Z,275
2018-03-31T11:06:40.553Z,305
2018-03-31T11:07:40.835Z,350
2018-03-31T11:08:40.853Z,395
2018-03-31T11:09:40.866Z,410
2018-03-31T11:10:40.642Z,420
2018-03-31T11:11:40.939Z,420
2018-03-31T11:12:40.926Z,420
2018-03-31T11:13:41.195Z,410
2018-03-31T11:14:41.231Z,390
2018-03-31T11:15:41.000Z,375
2018-03-31T11:16:41.300Z,370
2018-03-31T11:17:41.024Z,380
2018-03-31T11:18:41.109Z,425
2018-03-31T11:19:40.565Z,455
2018-03-31T11:20:41.079Z,505
2018-03-31T11:21:40.846Z,550
2018-03-31T11:22:41.376Z,645
2018-03-31T11:23:41.143Z,695
2018-03-31T11:24:41.419Z,770
2018-03-31T11:25:41.185Z,835
2018-03-31T11:26:41.461Z,785
2018-03-31T11:27:41.484Z,790
2018-03-31T11:28:41.497Z,840
2018-03-31T11:29:41.572Z,925
2018-03-31T11:30:41.288Z,880
2018-03-31T11:31:41.362Z,955
2018-03-31T11:32:41.082Z,605
2018-03-31T11:33:41.361Z,475
2018-03-31T11:34:41.376Z,390
2018-03-31T11:35:41.401Z,360
2018-03-31T11:36:41.429Z,365
2018-03-31T11:37:41.190Z,385
2018-03-31T11:38:41.464Z,405
2018-03-31T11:39:41.236Z,435
2018-03-31T11:40:41.509Z,465
2018-03-31T11:41:41.572Z,475
2018-03-31T11:42:41.808Z,465
2018-03-31T11:43:41.588Z,450
2018-03-31T11:44:41.860Z,430
2018-03-31T11:45:41.628Z,375
2018-03-31T11:46:41.948Z,340
2018-03-31T11:47:41.918Z,300
2018-03-31T11:48:41.688Z,275
2018-03-31T11:49:41.731Z,250
2018-03-31T11:50:41.525Z,230
2018-03-31T11:51:41.759Z,210
2018-03-31T11:52:42.041Z,185
2018-03-31T11:53:41.805Z,165
2018-03-31T11:54:41.833Z,150
2018-03-31T11:55:42.106Z,150
2018-03-31T11:56:42.115Z,150
2018-03-31T11:57:41.902Z,155
2018-03-31T11:58:41.659Z,170
2018-03-31T11:59:41.938Z,195
2018-03-31T12:00:42.220Z,225
2018-03-31T12:01:42.311Z,245
2018-03-31T12:02:42.259Z,260
2018-03-31T12:03:42.018Z,260
2018-03-31T12:04:42.053Z,260
2018-03-31T12:05:42.088Z,255
2018-03-31T12:06:42.347Z,235
2018-03-31T12:07:41.896Z,230
2018-03-31T12:08:42.376Z,235
2018-03-31T12:09:42.148Z,245
2018-03-31T12:10:42.419Z,275
2018-03-31T12:11:42.191Z,305
2018-03-31T12:12:42.199Z,315
2018-03-31T12:13:41.710Z,350
2018-03-31T12:14:42.498Z,375
2018-03-31T12:15:42.264Z,370
2018-03-31T12:16:42.085Z,365
2018-03-31T12:17:42.314Z,350
2018-03-31T12:18:42.325Z,350
2018-03-31T12:19:42.097Z,360
2018-03-31T12:20:42.353Z,375
2018-03-31T12:21:42.119Z,415
2018-03-31T12:22:42.649Z,455
2018-03-31T12:23:42.679Z,465
2018-03-31T12:24:42.431Z,465
2018-03-31T12:25:42.467Z,445
2018-03-31T12:26:42.503Z,440
2018-03-31T12:27:42.503Z,430
2018-03-31T12:28:42.526Z,410
2018-03-31T12:29:42.573Z,415
2018-03-31T12:30:42.832Z,435
2018-03-31T12:31:42.398Z,460
2018-03-31T12:32:42.882Z,520
2018-03-31T12:33:42.643Z,490
2018-03-31T12:34:42.926Z,520
2018-03-31T12:35:42.993Z,535
2018-03-31T12:36:42.584Z,520
2018-03-31T12:37:42.984Z,515
2018-03-31T12:38:42.241Z,505
2018-03-31T12:39:42.542Z,500
2018-03-31T12:40:42.810Z,465
2018-03-31T12:41:42.817Z,415
2018-03-31T12:42:42.629Z,375
2018-03-31T12:43:42.872Z,310
2018-03-31T12:44:42.919Z,240
2018-03-31T12:45:42.648Z,200
2018-03-31T12:46:42.976Z,165
2018-03-31T12:47:43.201Z,150
2018-03-31T12:48:43.226Z,135
2018-03-31T12:49:43.236Z,125
2018-03-31T12:50:42.502Z,115
2018-03-31T12:51:43.261Z,110
2018-03-31T12:52:43.075Z,110
2018-03-31T12:53:43.355Z,110
2018-03-31T12:54:43.343Z,115
2018-03-31T12:55:42.866Z,120
2018-03-31T12:56:43.192Z,130
2018-03-31T12:57:43.404Z,135
2018-03-31T12:58:43.168Z,145
2018-03-31T12:59:43.199Z,160
2018-03-31T13:00:43.466Z,170
2018-03-31T13:01:43.244Z,180
2018-03-31T13:02:43.267Z,190
2018-03-31T13:03:43.532Z,210
2018-03-31T13:04:43.057Z,225
2018-03-31T13:05:43.069Z,220
2018-03-31T13:06:43.343Z,215
2018-03-31T13:07:43.102Z,210
2018-03-31T13:08:43.375Z,205
2018-03-31T13:09:43.151Z,200
2018-03-31T13:10:43.668Z,200
2018-03-31T13:11:43.490Z,205
2018-03-31T13:12:43.717Z,205
2018-03-31T13:13:43.476Z,215
2018-03-31T13:14:43.244Z,220
2018-03-31T13:15:43.264Z,230
2018-03-31T13:16:43.571Z,235
2018-03-31T13:17:43.544Z,240
2018-03-31T13:18:43.306Z,240
2018-03-31T13:19:43.867Z,240
2018-03-31T13:20:43.622Z,240
2018-03-31T13:21:43.657Z,245
2018-03-31T13:22:43.410Z,245
2018-03-31T13:23:43.677Z,250
2018-03-31T13:24:43.185Z,260
2018-03-31T13:25:43.469Z,275
2018-03-31T13:26:43.744Z,290
2018-03-31T13:27:44.058Z,305
2018-03-31T13:28:43.785Z,305
2018-03-31T13:29:43.550Z,290
2018-03-31T13:30:43.572Z,270
2018-03-31T13:31:43.878Z,245
2018-03-31T13:32:43.865Z,225
2018-03-31T13:33:43.625Z,210
2018-03-31T13:34:43.919Z,200
2018-03-31T13:35:43.676Z,190
2018-03-31T13:36:43.691Z,180
2018-03-31T13:37:43.461Z,180
2018-03-31T13:38:44.262Z,180
2018-03-31T13:39:43.761Z,180
2018-03-31T13:40:44.032Z,180
2018-03-31T13:41:44.069Z,185
2018-03-31T13:42:43.869Z,185
2018-03-31T13:43:44.093Z,190
2018-03-31T13:44:44.253Z,190
2018-03-31T13:45:44.381Z,195
2018-03-31T13:46:44.165Z,200
2018-03-31T13:47:44.424Z,210
2018-03-31T13:48:44.449Z,220
2018-03-31T13:49:44.208Z,230
2018-03-31T13:50:44.232Z,235
2018-03-31T13:51:43.998Z,230
2018-03-31T13:52:44.527Z,220
2018-03-31T13:53:44.552Z,205
2018-03-31T13:54:44.333Z,185
2018-03-31T13:55:44.074Z,175
2018-03-31T13:56:44.390Z,170
2018-03-31T13:57:44.438Z,165
2018-03-31T13:58:44.399Z,165
2018-03-31T13:59:44.653Z,165
2018-03-31T14:00:44.166Z,160
2018-03-31T14:01:44.437Z,160
2018-03-31T14:02:44.600Z,150
2018-03-31T14:03:44.728Z,150
2018-03-31T14:04:44.749Z,150
2018-03-31T14:05:44.786Z,145
2018-03-31T14:06:44.810Z,140
2018-03-31T14:07:44.676Z,140
2018-03-31T14:08:44.841Z,140
2018-03-31T14:09:44.876Z,145
2018-03-31T14:10:44.666Z,150
2018-03-31T14:11:44.910Z,150
2018-03-31T14:12:44.474Z,160
2018-03-31T14:13:44.959Z,165